Quedas do Iguacu, Brazil
Current Conditions -  °F | °C
As of 4:00 PM on Monday 24 Nov 2014 (Local Time) from SBCA Reporting Station
Broken Clouds Broken Clouds  
Wind Chill: 81°   Ceiling: 2500
Heat Index: 83°   Visibility: 6mi
Dew Point: 68°   Wind: 17mph
Humidity: 65%   Direction: 50°NE
Pressure: 29.94"   Gusts: NA
Location:  25.45°S, 52.91°W
Report Text: SBCA 241800Z 05015KT 9999 FEW015 BKN025 FEW033TCU 27/20 Q1014
Loading
Personal Weather Stations






























Interactive Weather Map New forecast layout! Learn more

10-Day Weather Forecast

Advertisements
Track Severe Weather on mobile